Time;durP1;ratioP1;P1;durP2;ratioP2;P2;SDS_P1;SDS_P2;PMS_P1;PMS_P2;Temp;Humidity;BMP_temperature;BMP_pressure;BME280_temperature;BME280_humidity;BME280_pressure;Samples;Min_cycle;Max_cycle;Signal;HPM_P1;HPM_P2
2021/01/09 00:02:53;;;;;;;12.63;10.97;;;4.30;97.90;;;;;;10481573;28;20204;-82
2021/01/09 00:07:55;;;;;;;11.73;10.63;;;4.30;97.40;;;;;;10484897;28;20204;-82
2021/01/09 00:12:57;;;;;;;11.50;10.27;;;4.30;97.60;;;;;;10502654;28;20275;-84
2021/01/09 00:17:58;;;;;;;12.63;11.33;;;4.40;97.30;;;;;;10475384;28;20244;-82
2021/01/09 00:23:01;;;;;;;12.87;11.57;;;4.30;97.20;;;;;;10485907;28;20724;-84
2021/01/09 00:28:03;;;;;;;12.30;11.00;;;4.30;97.10;;;;;;10487679;28;20189;-82
2021/01/09 00:33:05;;;;;;;13.17;11.77;;;4.30;97.50;;;;;;10484017;28;20231;-83
2021/01/09 00:38:07;;;;;;;12.27;10.97;;;4.40;98.10;;;;;;10484063;28;20278;-83
2021/01/09 00:43:10;;;;;;;12.30;11.10;;;4.40;98.20;;;;;;10484447;28;20287;-83
2021/01/09 00:48:11;;;;;;;12.80;11.47;;;4.50;97.40;;;;;;10483563;28;20216;-83
2021/01/09 00:53:14;;;;;;;13.07;11.50;;;4.40;97.10;;;;;;10500419;28;20196;-82
2021/01/09 00:58:16;;;;;;;11.73;10.63;;;4.50;97.80;;;;;;10500777;28;20220;-84
2021/01/09 01:03:17;;;;;;;12.80;11.60;;;4.50;97.70;;;;;;10483969;28;20680;-82
2021/01/09 01:08:20;;;;;;;11.87;10.77;;;4.50;98.00;;;;;;10492062;28;20212;-84
2021/01/09 01:13:22;;;;;;;14.50;13.07;;;4.50;97.20;;;;;;10463034;28;20208;-83
2021/01/09 01:18:24;;;;;;;11.57;10.47;;;4.60;97.40;;;;;;10462949;28;20225;-83
2021/01/09 01:23:26;;;;;;;13.53;12.10;;;4.60;96.90;;;;;;10461415;28;20200;-83
2021/01/09 01:28:28;;;;;;;12.90;11.60;;;4.50;97.40;;;;;;10465300;28;20259;-83
2021/01/09 01:33:30;;;;;;;12.83;11.57;;;4.50;97.40;;;;;;10479947;28;20202;-84
2021/01/09 01:38:32;;;;;;;13.03;11.63;;;4.60;97.90;;;;;;10463602;28;20650;-81
2021/01/09 01:43:35;;;;;;;12.93;11.63;;;4.60;97.90;;;;;;10460703;28;20197;-82
2021/01/09 01:48:38;;;;;;;12.93;11.63;;;4.60;98.20;;;;;;10459667;28;20240;-83
2021/01/09 01:53:41;;;;;;;14.43;12.93;;;4.70;97.90;;;;;;10458974;28;20250;-83
2021/01/09 01:58:48;;;;;;;13.20;11.80;;;4.70;97.80;;;;;;10456897;28;20228;-82
2021/01/09 02:03:50;;;;;;;14.33;12.80;;;4.70;97.50;;;;;;10452623;28;20258;-82
2021/01/09 02:09:03;;;;;;;16.13;13.90;;;4.70;97.40;;;;;;10456691;28;20213;-82
2021/01/09 02:14:11;;;;;;;12.97;11.60;;;4.70;97.30;;;;;;10477876;28;20196;-82
2021/01/09 02:19:23;;;;;;;14.77;13.17;;;4.70;97.60;;;;;;10480274;28;20558;-82
2021/01/09 02:24:26;;;;;;;14.47;13.07;;;4.70;97.10;;;;;;10479987;28;20322;-83
2021/01/09 02:29:40;;;;;;;14.27;12.73;;;4.70;97.50;;;;;;10479804;28;20228;-83
2021/01/09 02:34:45;;;;;;;14.90;13.30;;;4.70;97.90;;;;;;10482557;28;20201;-82
2021/01/09 02:39:50;;;;;;;15.00;13.50;;;4.80;98.00;;;;;;10479527;28;20623;-84
2021/01/09 02:44:53;;;;;;;14.73;13.20;;;4.80;97.90;;;;;;10497588;28;20691;-83
2021/01/09 02:49:55;;;;;;;15.60;13.93;;;4.80;97.80;;;;;;10496439;28;20688;-82
2021/01/09 02:54:57;;;;;;;15.90;14.20;;;4.80;98.00;;;;;;10477539;28;20200;-82
2021/01/09 02:59:59;;;;;;;14.80;13.30;;;4.80;98.00;;;;;;10479037;28;20216;-84
2021/01/09 03:05:01;;;;;;;16.73;15.03;;;4.70;98.10;;;;;;10479185;28;20188;-82
2021/01/09 03:10:04;;;;;;;16.87;14.60;;;4.70;98.00;;;;;;10479319;28;20236;-85
2021/01/09 03:15:07;;;;;;;16.07;14.40;;;4.70;98.10;;;;;;10478799;28;20193;-83
2021/01/09 03:20:10;;;;;;;16.53;14.83;;;4.70;98.20;;;;;;10497486;28;20711;-84
2021/01/09 03:25:12;;;;;;;17.20;15.37;;;4.70;98.30;;;;;;10479472;28;20231;-84
2021/01/09 03:30:15;;;;;;;17.00;15.13;;;4.70;98.40;;;;;;10478865;28;20273;-83
2021/01/09 03:35:17;;;;;;;18.03;14.33;;;4.70;97.70;;;;;;10472546;28;20205;-84
2021/01/09 03:40:19;;;;;;;18.10;16.20;;;4.70;97.90;;;;;;10500435;28;20221;-83
2021/01/09 03:45:21;;;;;;;16.07;14.30;;;4.70;97.80;;;;;;10495443;28;20216;-84
2021/01/09 03:50:23;;;;;;;17.90;16.00;;;4.70;97.70;;;;;;10479244;28;20700;-84
2021/01/09 03:55:25;;;;;;;17.00;15.20;;;4.60;97.90;;;;;;10497069;28;20204;-84
2021/01/09 04:00:27;;;;;;;15.90;14.30;;;4.60;98.20;;;;;;10497500;28;20262;-83
2021/01/09 04:05:29;;;;;;;16.70;14.93;;;4.60;98.20;;;;;;10486903;28;20560;-85
2021/01/09 04:10:32;;;;;;;19.17;16.30;;;4.60;98.40;;;;;;10493798;28;20241;-82
2021/01/09 04:15:34;;;;;;;18.53;15.27;;;4.60;98.50;;;;;;10494146;28;20189;-82
2021/01/09 04:20:35;;;;;;;18.97;16.80;;;4.60;98.60;;;;;;10476440;28;20224;-82
2021/01/09 04:25:38;;;;;;;18.73;16.53;;;4.70;99.00;;;;;;10476885;28;20232;-84
2021/01/09 04:30:39;;;;;;;19.63;17.53;;;4.70;98.90;;;;;;10492306;28;20231;-84
2021/01/09 04:35:41;;;;;;;20.17;18.03;;;4.70;99.00;;;;;;10476624;28;20224;-84
2021/01/09 04:40:44;;;;;;;20.63;17.30;;;4.70;99.20;;;;;;10498599;28;20235;-83
2021/01/09 04:45:47;;;;;;;24.17;19.07;;;4.70;98.50;;;;;;10490458;28;20200;-84
2021/01/09 04:50:51;;;;;;;21.20;17.93;;;4.70;99.10;;;;;;10483570;28;20212;-83
2021/01/09 04:55:53;;;;;;;19.57;17.07;;;4.60;99.10;;;;;;10484492;28;20204;-85
2021/01/09 05:00:56;;;;;;;22.30;18.70;;;4.60;99.00;;;;;;10505954;28;20220;-83
2021/01/09 05:05:58;;;;;;;21.07;18.87;;;4.60;98.70;;;;;;10482960;28;20274;-83
2021/01/09 05:11:01;;;;;;;20.87;17.73;;;4.60;99.10;;;;;;10484745;28;20212;-83
2021/01/09 05:16:03;;;;;;;19.90;17.77;;;4.60;99.30;;;;;;10485070;28;20197;-83
2021/01/09 05:21:06;;;;;;;20.43;17.70;;;4.60;98.90;;;;;;10502956;28;20224;-84
2021/01/09 05:26:09;;;;;;;20.67;17.53;;;4.50;99.00;;;;;;10498412;28;20521;-85
2021/01/09 05:31:10;;;;;;;23.30;19.07;;;4.50;99.20;;;;;;10492073;28;20220;-84
2021/01/09 05:36:12;;;;;;;22.60;19.10;;;4.50;99.50;;;;;;10490824;28;20203;-83
2021/01/09 05:41:16;;;;;;;24.10;19.67;;;4.40;99.30;;;;;;10490521;28;20251;-83
2021/01/09 05:46:18;;;;;;;21.80;18.00;;;4.30;99.40;;;;;;10492879;28;20208;-84
2021/01/09 05:51:21;;;;;;;23.33;20.47;;;4.20;99.60;;;;;;10495149;28;20223;-86
2021/01/09 05:56:24;;;;;;;24.53;20.83;;;4.10;99.90;;;;;;10489777;28;20200;-84
2021/01/09 06:01:27;;;;;;;25.47;21.17;;;4.10;99.90;;;;;;10487041;28;20765;-84
2021/01/09 06:06:46;;;;;;;23.83;20.77;;;4.10;99.90;;;;;;10506145;28;20231;-83
2021/01/09 06:11:51;;;;;;;23.83;21.10;;;4.10;99.90;;;;;;10491034;28;20243;-84
2021/01/09 06:16:56;;;;;;;24.30;21.07;;;4.10;99.90;;;;;;10506042;28;20254;-85
2021/01/09 06:21:59;;;;;;;26.30;22.30;;;4.10;99.90;;;;;;10486183;28;20219;-83
2021/01/09 06:27:02;;;;;;;23.90;20.63;;;4.10;99.90;;;;;;10483476;28;20205;-84
2021/01/09 06:32:07;;;;;;;22.57;20.23;;;4.20;99.90;;;;;;10507557;28;20204;-83
2021/01/09 06:37:08;;;;;;;20.93;18.23;;;4.20;99.90;;;;;;10483617;28;20249;-83
2021/01/09 06:42:11;;;;;;;22.97;18.97;;;4.30;99.90;;;;;;10484724;28;20682;-83
2021/01/09 06:47:24;;;;;;;24.70;20.37;;;4.30;99.90;;;;;;10486871;28;20200;-84
2021/01/09 06:52:59;;;;;;;20.87;18.53;;;4.30;99.90;;;;;;10491752;28;20645;-85
2021/01/09 06:58:01;;;;;;;24.13;20.60;;;4.40;99.90;;;;;;10508071;28;20247;-85
2021/01/09 07:03:13;;;;;;;26.20;21.07;;;4.40;99.90;;;;;;10480590;28;20197;-85
2021/01/09 07:08:20;;;;;;;26.13;20.43;;;4.40;99.90;;;;;;10498945;28;20216;-83
2021/01/09 07:13:23;;;;;;;25.00;20.67;;;4.40;99.90;;;;;;10485526;28;20196;-85
2021/01/09 07:18:27;;;;;;;26.70;21.90;;;4.40;99.90;;;;;;10500460;28;20258;-84
2021/01/09 07:23:30;;;;;;;26.90;22.30;;;4.30;99.90;;;;;;10487804;28;20219;-83
2021/01/09 07:28:36;;;;;;;30.83;24.40;;;4.30;99.90;;;;;;10488498;28;20239;-84
2021/01/09 07:33:41;;;;;;;31.27;25.37;;;4.30;99.90;;;;;;10480537;28;20207;-83
2021/01/09 07:38:45;;;;;;;30.97;24.53;;;4.40;99.90;;;;;;10503587;28;20224;-83
2021/01/09 07:43:47;;;;;;;29.10;23.07;;;4.50;99.90;;;;;;10504318;28;20239;-85
2021/01/09 07:48:50;;;;;;;30.23;23.63;;;4.50;99.90;;;;;;10503737;28;20212;-84
2021/01/09 07:53:52;;;;;;;30.20;23.67;;;4.50;99.90;;;;;;10490241;28;20279;-83
2021/01/09 07:58:54;;;;;;;25.30;21.70;;;4.50;99.90;;;;;;10484519;28;20224;-83
2021/01/09 08:03:58;;;;;;;22.80;20.37;;;4.50;99.90;;;;;;10489050;28;20200;-83
2021/01/09 08:09:00;;;;;;;26.23;22.60;;;4.40;99.90;;;;;;10499598;28;20200;-85
2021/01/09 08:14:03;;;;;;;24.43;20.30;;;4.40;99.90;;;;;;10481923;28;20715;-84
2021/01/09 08:19:15;;;;;;;26.10;22.00;;;4.40;99.90;;;;;;10497540;28;20704;-83
2021/01/09 08:24:25;;;;;;;27.90;23.10;;;4.40;99.90;;;;;;10463432;28;20255;-84
2021/01/09 08:29:29;;;;;;;27.57;24.40;;;4.30;99.90;;;;;;10494554;28;20221;-83
2021/01/09 08:34:30;;;;;;;28.07;24.67;;;4.30;99.90;;;;;;10490066;28;20666;-84
2021/01/09 08:39:35;;;;;;;32.23;23.90;;;4.40;99.90;;;;;;10470263;28;20736;-83
2021/01/09 08:44:46;;;;;;;31.20;25.30;;;4.40;99.90;;;;;;10470786;28;20196;-83
2021/01/09 08:49:51;;;;;;;29.23;24.67;;;4.40;99.90;;;;;;10474807;28;20237;-84
2021/01/09 08:54:57;;;;;;;33.60;24.63;;;4.50;99.90;;;;;;10477931;28;20196;-82
2021/01/09 08:59:59;;;;;;;31.53;25.77;;;4.50;99.90;;;;;;10479551;28;20219;-84
2021/01/09 09:05:04;;;;;;;30.53;25.53;;;4.50;99.90;;;;;;10463037;28;20269;-84
2021/01/09 09:10:08;;;;;;;31.03;25.17;;;4.50;99.90;;;;;;10456275;28;20213;-84
2021/01/09 09:15:12;;;;;;;30.70;25.03;;;4.50;99.90;;;;;;10478212;28;20200;-82
2021/01/09 09:20:16;;;;;;;30.20;24.07;;;4.60;99.90;;;;;;10481574;28;20295;-83
2021/01/09 09:25:24;;;;;;;30.30;24.00;;;4.60;99.90;;;;;;10500397;28;20315;-84
2021/01/09 09:30:26;;;;;;;29.17;24.27;;;4.60;99.90;;;;;;10488717;28;20303;-84
2021/01/09 09:35:29;;;;;;;29.00;24.57;;;4.60;99.90;;;;;;10487830;28;20539;-83
2021/01/09 09:40:38;;;;;;;27.47;23.47;;;4.70;99.90;;;;;;10511723;28;20262;-83
2021/01/09 09:45:40;;;;;;;27.97;23.33;;;4.70;99.90;;;;;;10509457;28;20201;-85
2021/01/09 09:50:42;;;;;;;26.43;20.77;;;4.60;99.90;;;;;;10494875;28;20212;-83
2021/01/09 09:55:44;;;;;;;26.50;22.07;;;4.60;99.90;;;;;;10494761;28;20200;-83
2021/01/09 10:00:46;;;;;;;25.47;20.93;;;4.60;99.90;;;;;;10512588;28;20240;-84
2021/01/09 10:06:01;;;;;;;24.73;20.37;;;4.50;99.90;;;;;;10518216;28;20200;-83
2021/01/09 10:11:04;;;;;;;23.70;20.27;;;4.60;99.90;;;;;;10501556;28;20281;-83
2021/01/09 10:16:06;;;;;;;24.70;19.93;;;4.60;99.90;;;;;;10507144;28;20193;-84
2021/01/09 10:21:07;;;;;;;23.60;19.47;;;4.70;99.90;;;;;;10510372;28;20224;-83
2021/01/09 10:26:10;;;;;;;23.43;20.00;;;4.70;99.70;;;;;;10490117;28;20215;-84
2021/01/09 10:31:12;;;;;;;22.20;19.27;;;4.70;99.70;;;;;;10489638;28;20296;-82
2021/01/09 10:36:13;;;;;;;22.27;18.50;;;4.70;99.50;;;;;;10510934;28;20283;-84
2021/01/09 10:41:16;;;;;;;23.67;19.37;;;4.70;98.40;;;;;;10492074;28;20228;-84
2021/01/09 10:46:22;;;;;;;23.13;18.97;;;4.70;99.20;;;;;;10507162;28;20275;-83
2021/01/09 10:51:26;;;;;;;22.97;18.63;;;4.80;98.60;;;;;;10478392;28;20263;-84
2021/01/09 10:56:28;;;;;;;20.63;17.20;;;5.00;98.80;;;;;;10482329;28;20229;-85
2021/01/09 11:01:30;;;;;;;23.43;18.27;;;5.10;98.50;;;;;;10493121;28;20225;-84
2021/01/09 11:06:32;;;;;;;21.17;16.93;;;5.00;98.10;;;;;;10509633;28;20235;-84
2021/01/09 11:11:34;;;;;;;21.27;18.13;;;5.00;97.40;;;;;;10514084;28;20212;-84
2021/01/09 11:16:36;;;;;;;22.60;17.93;;;5.00;98.10;;;;;;10508575;28;20571;-83
2021/01/09 11:21:38;;;;;;;22.80;18.47;;;4.90;97.90;;;;;;10485225;28;20229;-83
2021/01/09 11:26:40;;;;;;;17.63;15.37;;;4.90;98.10;;;;;;10474158;28;20219;-83
2021/01/09 11:31:42;;;;;;;19.60;16.53;;;4.90;97.50;;;;;;10488124;28;20223;-84
2021/01/09 11:36:45;;;;;;;18.60;15.70;;;4.90;97.00;;;;;;10489201;28;20215;-82
2021/01/09 11:41:48;;;;;;;12.00;10.80;;;4.90;97.40;;;;;;10489085;28;20707;-83
2021/01/09 11:46:50;;;;;;;12.60;11.13;;;5.00;95.50;;;;;;10496956;28;20192;-84
2021/01/09 11:51:52;;;;;;;14.77;12.40;;;5.00;94.00;;;;;;10481349;28;20205;-84
2021/01/09 11:56:56;;;;;;;14.13;12.63;;;5.00;94.90;;;;;;10503327;28;20725;-84
2021/01/09 12:01:57;;;;;;;12.80;11.30;;;5.10;94.30;;;;;;10515932;28;20224;-85
2021/01/09 12:06:59;;;;;;;12.80;10.30;;;5.10;94.80;;;;;;10502105;28;20274;-84
2021/01/09 12:12:02;;;;;;;14.50;10.63;;;5.10;94.20;;;;;;10511404;28;20230;-84
2021/01/09 12:17:04;;;;;;;10.90;9.80;;;5.00;93.80;;;;;;10497724;28;20287;-84
2021/01/09 12:22:06;;;;;;;11.27;10.00;;;5.00;93.70;;;;;;10499592;28;20696;-83
2021/01/09 12:27:09;;;;;;;11.17;9.73;;;5.10;93.70;;;;;;10516493;28;20202;-83
2021/01/09 12:32:11;;;;;;;10.77;9.47;;;5.20;93.80;;;;;;10475568;28;20672;-82
2021/01/09 12:37:13;;;;;;;12.17;9.90;;;5.20;92.90;;;;;;10463533;28;20201;-83
2021/01/09 12:42:16;;;;;;;9.10;8.20;;;5.20;92.40;;;;;;10474189;28;20756;-83
2021/01/09 12:52:37;;;;;;;9.30;7.90;;;5.00;91.90;;;;;;10481422;28;20216;-81
2021/01/09 12:57:42;;;;;;;9.50;8.60;;;4.80;91.60;;;;;;10460615;28;20568;-82
2021/01/09 13:02:44;;;;;;;9.07;8.20;;;4.70;92.80;;;;;;10460083;28;20213;-82
2021/01/09 13:07:46;;;;;;;9.17;8.27;;;4.80;92.20;;;;;;10463789;28;20660;-83
2021/01/09 13:12:49;;;;;;;8.70;7.90;;;4.80;92.30;;;;;;10482274;28;20201;-84
2021/01/09 13:17:50;;;;;;;9.47;8.37;;;4.80;92.90;;;;;;10471455;28;20204;-84
2021/01/09 13:22:52;;;;;;;9.73;8.67;;;4.80;91.70;;;;;;10480752;28;20220;-82
2021/01/09 13:27:55;;;;;;;10.87;9.77;;;4.70;91.70;;;;;;10457003;28;20679;-83
2021/01/09 13:32:56;;;;;;;9.23;8.33;;;4.60;91.80;;;;;;10456809;28;20189;-83
2021/01/09 13:37:58;;;;;;;9.33;8.27;;;4.60;92.70;;;;;;10460831;28;20201;-83
2021/01/09 13:43:03;;;;;;;11.30;9.53;;;4.60;91.30;;;;;;10462831;28;20307;-84
2021/01/09 13:48:06;;;;;;;11.70;10.50;;;4.40;92.90;;;;;;10455690;28;20432;-83
2021/01/09 13:53:07;;;;;;;10.70;9.70;;;4.40;92.10;;;;;;10475350;28;20647;-82
2021/01/09 13:58:10;;;;;;;10.13;9.13;;;4.40;92.20;;;;;;10479294;28;20221;-83
2021/01/09 14:03:12;;;;;;;9.73;8.73;;;4.40;93.20;;;;;;10474541;28;20197;-83
2021/01/09 14:08:13;;;;;;;10.53;9.43;;;4.30;92.50;;;;;;10478276;28;20223;-84
2021/01/09 14:13:16;;;;;;;13.17;9.90;;;4.30;92.40;;;;;;10501744;28;20636;-83
2021/01/09 14:18:17;;;;;;;10.33;9.27;;;4.30;92.30;;;;;;10463364;28;20232;-84
2021/01/09 14:23:19;;;;;;;10.60;9.57;;;4.40;92.60;;;;;;10478962;28;20289;-82
2021/01/09 14:28:22;;;;;;;11.43;8.93;;;4.50;92.30;;;;;;10476302;28;20298;-84
2021/01/09 14:33:24;;;;;;;12.60;11.30;;;4.60;92.10;;;;;;10474481;28;20661;-83
2021/01/09 14:38:27;;;;;;;10.93;9.83;;;4.60;92.60;;;;;;10474640;28;20221;-82
2021/01/09 14:43:29;;;;;;;10.57;9.47;;;4.60;92.20;;;;;;10458630;28;20262;-83
2021/01/09 14:48:31;;;;;;;10.50;9.50;;;4.60;91.50;;;;;;10477469;28;20352;-82
2021/01/09 14:53:33;;;;;;;11.97;10.27;;;4.50;91.20;;;;;;10478269;28;20257;-84
2021/01/09 14:58:35;;;;;;;10.50;9.40;;;4.40;92.40;;;;;;10481890;28;20225;-84
2021/01/09 15:03:37;;;;;;;11.37;10.17;;;4.30;92.50;;;;;;10463157;28;20197;-82
2021/01/09 15:08:39;;;;;;;12.67;11.37;;;4.20;92.40;;;;;;10483955;28;20562;-83
2021/01/09 15:13:42;;;;;;;11.33;10.23;;;4.10;92.10;;;;;;10471793;28;20205;-81
2021/01/09 15:19:08;;;;;;;12.60;11.30;;;3.90;92.60;;;;;;10480312;28;20645;-82
2021/01/09 15:24:10;;;;;;;11.87;10.67;;;3.80;92.90;;;;;;10508553;28;20204;-81
2021/01/09 15:29:13;;;;;;;11.80;10.60;;;3.70;93.20;;;;;;10454421;28;20695;-82
2021/01/09 15:34:15;;;;;;;12.90;10.90;;;3.60;93.20;;;;;;10478608;28;20200;-82
2021/01/09 15:39:21;;;;;;;12.60;11.10;;;3.60;93.30;;;;;;10455734;28;20224;-84
2021/01/09 15:44:24;;;;;;;11.63;10.43;;;3.60;93.10;;;;;;10497445;28;20220;-85
2021/01/09 15:49:26;;;;;;;14.00;10.70;;;3.50;93.10;;;;;;10476205;28;20692;-83
2021/01/09 15:54:28;;;;;;;13.03;11.73;;;3.40;94.00;;;;;;10469099;28;20234;-83
2021/01/09 15:59:31;;;;;;;12.73;11.43;;;3.40;94.10;;;;;;10450167;28;20217;-83
2021/01/09 16:04:33;;;;;;;15.77;14.17;;;3.40;93.00;;;;;;10455514;28;20619;-82
2021/01/09 16:09:35;;;;;;;14.20;12.37;;;3.30;93.60;;;;;;10454562;28;20209;-83
2021/01/09 16:14:38;;;;;;;26.37;21.40;;;3.20;93.00;;;;;;10473335;28;20319;-85
2021/01/09 16:19:39;;;;;;;15.03;13.43;;;3.20;93.70;;;;;;10447873;28;20225;-84
2021/01/09 16:24:41;;;;;;;14.27;12.87;;;3.10;94.20;;;;;;10467362;28;20298;-85
2021/01/09 16:29:45;;;;;;;18.83;15.63;;;3.00;94.60;;;;;;10481203;28;20198;-83
2021/01/09 16:34:47;;;;;;;17.63;15.37;;;3.00;95.20;;;;;;10466642;28;20189;-83
2021/01/09 16:39:49;;;;;;;17.27;14.73;;;2.90;95.00;;;;;;10482447;22;20271;-78
2021/01/09 16:44:53;;;;;;;38.67;21.80;;;2.90;95.30;;;;;;10494301;28;20200;-79
2021/01/09 16:49:54;;;;;;;22.87;17.00;;;2.90;95.50;;;;;;10477580;28;20208;-78
2021/01/09 16:54:56;;;;;;;15.30;13.70;;;2.80;95.40;;;;;;10499861;28;20223;-79
2021/01/09 16:59:58;;;;;;;14.03;12.60;;;2.80;95.10;;;;;;10476020;28;20224;-79
2021/01/09 17:05:00;;;;;;;13.50;12.10;;;2.70;95.50;;;;;;10474026;28;20231;-79
2021/01/09 17:10:02;;;;;;;14.53;13.07;;;2.70;95.80;;;;;;10477765;28;20213;-79
2021/01/09 17:15:06;;;;;;;17.20;14.23;;;2.70;95.30;;;;;;10461210;28;20188;-79
2021/01/09 17:20:09;;;;;;;13.87;12.37;;;2.70;94.90;;;;;;10469594;28;20221;-78
2021/01/09 17:25:11;;;;;;;14.30;12.90;;;2.70;95.30;;;;;;10434203;28;20524;-79
2021/01/09 17:30:15;;;;;;;13.50;12.10;;;2.70;95.00;;;;;;10482802;28;20693;-78
2021/01/09 17:35:18;;;;;;;19.40;15.60;;;2.70;94.30;;;;;;10512260;28;20778;-79
2021/01/09 17:40:20;;;;;;;21.37;18.70;;;2.60;94.60;;;;;;10471320;28;20249;-79
2021/01/09 17:45:22;;;;;;;14.90;13.40;;;2.60;94.30;;;;;;10444927;28;20201;-78
2021/01/09 17:50:24;;;;;;;17.30;14.10;;;2.50;94.30;;;;;;10468985;28;20249;-78
2021/01/09 17:55:26;;;;;;;14.90;13.03;;;2.50;94.40;;;;;;10466228;28;20286;-79
2021/01/09 18:00:28;;;;;;;15.20;13.70;;;2.40;94.50;;;;;;10468175;28;20327;-78
2021/01/09 18:05:30;;;;;;;16.93;15.10;;;2.40;94.60;;;;;;10449306;28;20208;-79
2021/01/09 18:10:32;;;;;;;41.13;20.77;;;2.40;94.50;;;;;;10449405;28;20214;-78
2021/01/09 18:15:35;;;;;;;85.67;47.37;;;2.30;94.50;;;;;;10447575;28;20253;-78
2021/01/09 18:20:37;;;;;;;28.50;24.10;;;2.30;94.40;;;;;;10435321;28;20303;-78
2021/01/09 18:25:45;;;;;;;22.23;19.93;;;2.20;94.80;;;;;;10420225;28;20223;-78
2021/01/09 18:30:48;;;;;;;44.27;36.17;;;2.20;94.50;;;;;;10448480;28;20227;-78
2021/01/09 18:35:57;;;;;;;14.67;13.00;;;2.10;94.80;;;;;;10462380;28;20193;-78
2021/01/09 18:41:06;;;;;;;13.30;12.00;;;2.10;94.70;;;;;;10433197;28;20768;-78
2021/01/09 18:46:15;;;;;;;16.73;15.00;;;2.00;94.90;;;;;;10443038;28;20585;-79
2021/01/09 18:51:30;;;;;;;14.60;13.07;;;2.00;95.10;;;;;;10431236;28;20592;-79
2021/01/09 18:56:32;;;;;;;15.63;13.90;;;2.00;94.90;;;;;;10430651;28;20204;-78
2021/01/09 19:01:35;;;;;;;16.30;14.60;;;1.90;95.10;;;;;;10446307;28;20231;-79
2021/01/09 19:06:37;;;;;;;15.33;13.40;;;1.90;95.10;;;;;;10447921;28;20292;-78
2021/01/09 19:11:39;;;;;;;16.03;14.20;;;1.90;95.00;;;;;;10448950;28;20270;-78
2021/01/09 19:16:42;;;;;;;16.17;14.47;;;1.80;95.00;;;;;;10478100;28;20290;-78
2021/01/09 19:21:49;;;;;;;19.70;17.73;;;1.80;95.00;;;;;;10445566;28;20224;-79
2021/01/09 19:26:58;;;;;;;21.53;19.20;;;1.70;95.10;;;;;;10467120;28;20676;-78
2021/01/09 19:32:02;;;;;;;68.13;40.17;;;1.70;95.30;;;;;;10431050;28;20765;-79
2021/01/09 19:37:09;;;;;;;114.00;44.87;;;1.70;95.50;;;;;;10445924;28;20257;-78
2021/01/09 19:42:19;;;;;;;89.40;38.60;;;1.70;95.50;;;;;;10447459;28;20221;-78
2021/01/09 19:47:24;;;;;;;27.97;19.27;;;1.80;95.70;;;;;;10454441;28;20826;-79
2021/01/09 19:52:28;;;;;;;35.03;24.97;;;1.80;95.70;;;;;;10433900;28;20593;-78
2021/01/09 19:57:32;;;;;;;35.10;21.90;;;1.90;95.80;;;;;;10447884;28;20350;-78
2021/01/09 20:02:34;;;;;;;37.03;27.67;;;2.00;95.50;;;;;;10444309;28;20536;-78
2021/01/09 20:07:40;;;;;;;30.33;21.90;;;2.10;95.80;;;;;;10446070;28;20192;-79
2021/01/09 20:12:42;;;;;;;17.60;15.53;;;2.20;96.10;;;;;;10444121;28;20300;-78
2021/01/09 20:17:47;;;;;;;19.17;16.80;;;2.30;96.00;;;;;;10456300;28;20243;-78
2021/01/09 20:22:54;;;;;;;20.83;17.50;;;2.40;95.80;;;;;;10452704;28;20227;-79
2021/01/09 20:27:58;;;;;;;22.73;18.60;;;2.50;95.50;;;;;;10470384;28;20466;-79
2021/01/09 20:33:05;;;;;;;22.20;18.07;;;2.60;95.90;;;;;;10450855;28;20587;-79
2021/01/09 20:38:11;;;;;;;20.73;17.50;;;2.70;95.70;;;;;;10443406;28;20250;-79
2021/01/09 20:43:13;;;;;;;20.20;17.20;;;2.70;95.90;;;;;;10442126;28;20242;-78
2021/01/09 20:48:16;;;;;;;18.70;16.70;;;2.80;96.00;;;;;;10436016;28;20287;-79
2021/01/09 20:53:18;;;;;;;20.17;17.07;;;2.80;95.60;;;;;;10433578;28;20226;-78
2021/01/09 20:58:21;;;;;;;21.10;17.77;;;2.80;95.60;;;;;;10453859;28;20685;-79
2021/01/09 21:03:24;;;;;;;21.30;17.53;;;2.90;95.90;;;;;;10437397;28;20688;-79
2021/01/09 21:08:26;;;;;;;20.10;17.10;;;2.90;95.50;;;;;;10470527;28;20199;-79
2021/01/09 21:13:27;;;;;;;17.20;14.83;;;3.00;95.50;;;;;;10464383;28;20269;-78
2021/01/09 21:18:30;;;;;;;20.50;17.73;;;2.90;94.70;;;;;;10472669;28;20189;-79
2021/01/09 21:23:32;;;;;;;19.00;16.57;;;2.90;95.00;;;;;;10451219;28;20597;-79
2021/01/09 21:28:34;;;;;;;17.87;15.00;;;2.90;95.20;;;;;;10467686;28;20574;-79
2021/01/09 21:33:37;;;;;;;17.27;14.80;;;2.90;95.50;;;;;;10470844;28;20704;-78
2021/01/09 21:38:39;;;;;;;19.07;16.73;;;3.00;95.20;;;;;;10455489;28;20656;-79
2021/01/09 21:43:41;;;;;;;17.50;15.33;;;3.00;95.10;;;;;;10488824;28;20220;-79
2021/01/09 21:48:43;;;;;;;17.10;15.17;;;2.90;95.10;;;;;;10471723;28;20193;-79
2021/01/09 21:53:45;;;;;;;17.27;15.27;;;2.90;95.10;;;;;;10488731;28;20236;-78
2021/01/09 21:58:46;;;;;;;17.67;14.67;;;2.90;95.00;;;;;;10472774;28;20208;-79
2021/01/09 22:03:49;;;;;;;20.20;16.40;;;2.90;94.60;;;;;;10490028;28;20745;-79
2021/01/09 22:08:51;;;;;;;19.03;16.13;;;2.90;94.60;;;;;;10470688;28;20220;-79
2021/01/09 22:13:55;;;;;;;19.60;15.70;;;2.80;95.00;;;;;;10470861;28;20589;-79
2021/01/09 22:18:58;;;;;;;18.80;16.70;;;2.80;94.50;;;;;;10465970;28;20296;-79
2021/01/09 22:23:59;;;;;;;21.37;17.37;;;2.70;94.40;;;;;;10452789;28;20200;-79
2021/01/09 22:29:01;;;;;;;18.27;15.57;;;2.70;94.60;;;;;;10467093;28;20212;-79
2021/01/09 22:34:04;;;;;;;18.93;16.93;;;2.60;94.50;;;;;;10469905;28;20679;-79
2021/01/09 23:26:28;;;;;;;12.63;11.20;;;1.80;95.10;;;;;;10084815;29;20242;-85
2021/01/09 23:31:30;;;;;;;11.47;10.00;;;1.70;94.80;;;;;;10143719;28;20319;-84
2021/01/09 23:36:32;;;;;;;10.90;9.80;;;1.60;94.80;;;;;;10421666;28;20247;-84
2021/01/09 23:41:37;;;;;;;11.60;10.40;;;1.50;94.80;;;;;;10419859;28;20224;-85
2021/01/09 23:46:39;;;;;;;12.27;11.00;;;1.50;94.50;;;;;;10407669;28;20198;-85
2021/01/09 23:51:41;;;;;;;11.13;9.93;;;1.40;94.50;;;;;;10413319;28;20213;-85
2021/01/09 23:56:49;;;;;;;11.80;10.13;;;1.30;94.50;;;;;;10438388;28;20194;-84
